createdAt,value
2018-05-31T00:00:39.916Z,0.00
2018-05-31T00:01:39.895Z,0.00
2018-05-31T00:02:39.857Z,0.00
2018-05-31T00:03:39.818Z,0.00
2018-05-31T00:04:39.791Z,0.00
2018-05-31T00:05:39.801Z,0.00
2018-05-31T00:06:39.714Z,0.00
2018-05-31T00:07:39.712Z,0.00
2018-05-31T00:08:39.645Z,0.00
2018-05-31T00:09:39.647Z,0.00
2018-05-31T00:10:39.592Z,0.00
2018-05-31T00:11:39.532Z,0.00
2018-05-31T00:12:39.510Z,0.00
2018-05-31T00:13:39.528Z,0.00
2018-05-31T00:14:39.463Z,0.00
2018-05-31T00:15:39.419Z,0.00
2018-05-31T00:16:39.394Z,0.00
2018-05-31T00:17:39.349Z,0.00
2018-05-31T00:18:39.347Z,0.00
2018-05-31T00:19:39.288Z,0.00
2018-05-31T00:20:39.229Z,0.00
2018-05-31T00:21:39.211Z,0.00
2018-05-31T00:22:39.173Z,0.00
2018-05-31T00:23:39.140Z,0.00
2018-05-31T00:24:39.122Z,0.00
2018-05-31T00:25:39.064Z,0.00
2018-05-31T00:26:39.045Z,0.00
2018-05-31T00:27:38.995Z,0.00
2018-05-31T00:28:38.976Z,0.00
2018-05-31T00:29:38.960Z,0.00
2018-05-31T00:30:38.924Z,0.00
2018-05-31T00:31:38.863Z,0.00
2018-05-31T00:32:38.826Z,0.00
2018-05-31T00:33:38.787Z,0.00
2018-05-31T00:34:38.778Z,0.00
2018-05-31T00:35:38.743Z,0.00
2018-05-31T00:36:38.704Z,0.00
2018-05-31T00:37:38.670Z,0.00
2018-05-31T00:38:38.684Z,0.00
2018-05-31T00:39:38.605Z,0.00
2018-05-31T00:40:38.597Z,0.00
2018-05-31T00:41:38.535Z,0.00
2018-05-31T00:42:38.501Z,0.00
2018-05-31T00:43:38.489Z,0.00
2018-05-31T00:44:38.442Z,0.00
2018-05-31T00:45:39.055Z,0.00
2018-05-31T00:46:38.357Z,0.00
2018-05-31T00:47:38.326Z,0.00
2018-05-31T00:48:38.315Z,0.00
2018-05-31T00:49:38.280Z,0.00
2018-05-31T00:50:38.240Z,0.00
2018-05-31T00:51:38.199Z,0.00
2018-05-31T00:52:38.176Z,0.00
2018-05-31T00:53:38.132Z,0.00
2018-05-31T00:54:38.098Z,0.00
2018-05-31T00:55:38.086Z,0.00
2018-05-31T00:56:38.059Z,0.00
2018-05-31T00:57:38.000Z,0.00
2018-05-31T00:58:37.980Z,0.00
2018-05-31T00:59:37.928Z,0.00
2018-05-31T01:00:37.890Z,0.00
2018-05-31T01:01:37.890Z,0.00
2018-05-31T01:02:37.829Z,0.00
2018-05-31T01:03:37.790Z,0.00
2018-05-31T01:04:37.803Z,0.00
2018-05-31T01:05:37.728Z,0.00
2018-05-31T01:06:37.701Z,0.00
2018-05-31T01:07:37.673Z,0.00
2018-05-31T01:08:37.644Z,0.00
2018-05-31T01:09:37.621Z,0.00
2018-05-31T01:10:37.580Z,0.00
2018-05-31T01:11:37.528Z,0.00
2018-05-31T01:12:37.551Z,0.00
2018-05-31T01:13:37.515Z,0.00
2018-05-31T01:14:37.430Z,0.00
2018-05-31T01:15:37.410Z,0.00
2018-05-31T01:16:37.380Z,0.00
2018-05-31T01:17:37.377Z,0.00
2018-05-31T01:18:37.330Z,0.00
2018-05-31T01:19:37.272Z,0.00
2018-05-31T01:20:37.228Z,0.00
2018-05-31T01:21:37.224Z,0.00
2018-05-31T01:22:37.175Z,0.00
2018-05-31T01:23:37.139Z,0.00
2018-05-31T01:24:37.090Z,0.00
2018-05-31T01:25:37.052Z,0.00
2018-05-31T01:26:37.026Z,0.00
2018-05-31T01:27:37.063Z,0.00
2018-05-31T01:28:36.950Z,0.00
2018-05-31T01:29:36.935Z,0.00
2018-05-31T01:30:36.883Z,0.00
2018-05-31T01:31:36.885Z,0.00
2018-05-31T01:32:36.868Z,0.00
2018-05-31T01:33:36.811Z,0.00
2018-05-31T01:34:36.770Z,0.00
2018-05-31T01:35:36.736Z,0.00
2018-05-31T01:36:36.701Z,0.00
2018-05-31T01:37:36.654Z,0.00
2018-05-31T01:38:36.629Z,0.00
2018-05-31T01:39:36.592Z,0.00
2018-05-31T01:40:36.573Z,0.00
2018-05-31T01:41:36.526Z,0.00
2018-05-31T01:42:36.537Z,0.00
2018-05-31T01:43:36.463Z,0.00
2018-05-31T01:44:36.414Z,0.00
2018-05-31T01:45:36.415Z,0.00
2018-05-31T01:46:36.343Z,0.00
2018-05-31T01:47:36.313Z,0.00
2018-05-31T01:48:36.275Z,0.00
2018-05-31T01:49:36.237Z,0.00
2018-05-31T01:50:36.243Z,0.00
2018-05-31T01:51:36.177Z,0.00
2018-05-31T01:52:36.133Z,0.00
2018-05-31T01:53:36.207Z,0.00
2018-05-31T01:54:36.095Z,0.00
2018-05-31T01:55:36.072Z,0.00
2018-05-31T01:56:36.008Z,0.00
2018-05-31T01:57:36.022Z,0.00
2018-05-31T01:58:35.947Z,0.00
2018-05-31T01:59:35.910Z,0.00
2018-05-31T02:00:35.891Z,0.00
2018-05-31T02:01:35.839Z,0.00
2018-05-31T02:02:35.833Z,0.00
2018-05-31T02:03:35.774Z,0.00
2018-05-31T02:04:35.738Z,0.00
2018-05-31T02:05:35.707Z,0.00
2018-05-31T02:06:35.669Z,0.00
2018-05-31T02:07:35.641Z,0.00
2018-05-31T02:08:35.605Z,0.00
2018-05-31T02:09:35.619Z,0.00
2018-05-31T02:10:35.532Z,0.00
2018-05-31T02:11:35.498Z,0.00
2018-05-31T02:12:35.537Z,0.00
2018-05-31T02:13:35.438Z,0.00
2018-05-31T02:14:35.404Z,0.00
2018-05-31T02:15:35.393Z,0.00
2018-05-31T02:16:35.335Z,4.00
2018-05-31T02:17:35.292Z,4.00
2018-05-31T02:18:35.265Z,4.00
2018-05-31T02:19:35.268Z,0.00
2018-05-31T02:20:35.200Z,0.00
2018-05-31T02:21:35.221Z,4.00
2018-05-31T02:22:35.115Z,4.00
2018-05-31T02:23:35.079Z,4.00
2018-05-31T02:24:35.066Z,4.00
2018-05-31T02:25:35.058Z,4.00
2018-05-31T02:26:34.992Z,8.00
2018-05-31T02:27:35.001Z,4.00
2018-05-31T02:28:34.943Z,8.00
2018-05-31T02:29:34.894Z,8.00
2018-05-31T02:30:34.864Z,8.00
2018-05-31T02:31:34.815Z,12.00
2018-05-31T02:32:34.789Z,12.00
2018-05-31T02:33:34.781Z,12.00
2018-05-31T02:34:34.721Z,12.00
2018-05-31T02:35:35.584Z,16.00
2018-05-31T02:36:34.641Z,16.00
2018-05-31T02:37:34.618Z,20.00
2018-05-31T02:38:34.582Z,20.00
2018-05-31T02:39:34.563Z,24.00
2018-05-31T02:40:34.540Z,28.00
2018-05-31T02:41:34.496Z,32.00
2018-05-31T02:42:34.462Z,36.00
2018-05-31T02:43:34.424Z,40.00
2018-05-31T02:44:34.398Z,44.00
2018-05-31T02:45:34.358Z,52.00
2018-05-31T02:46:34.321Z,60.00
2018-05-31T02:47:34.282Z,68.00
2018-05-31T02:48:34.291Z,72.00
2018-05-31T02:49:34.211Z,84.00
2018-05-31T02:50:34.164Z,96.00
2018-05-31T02:51:34.154Z,104.00
2018-05-31T02:52:34.143Z,120.00
2018-05-31T02:53:34.067Z,136.00
2018-05-31T02:54:34.043Z,152.00
2018-05-31T02:55:34.008Z,172.00
2018-05-31T02:56:33.963Z,188.00
2018-05-31T02:57:33.938Z,208.00
2018-05-31T02:58:33.973Z,228.00
2018-05-31T02:59:33.863Z,248.00
2018-05-31T03:00:33.834Z,272.00
2018-05-31T03:01:33.799Z,292.00
2018-05-31T03:02:33.784Z,316.00
2018-05-31T03:03:33.758Z,336.00
2018-05-31T03:04:33.706Z,364.00
2018-05-31T03:05:33.652Z,396.00
2018-05-31T03:06:33.645Z,428.00
2018-05-31T03:07:33.643Z,468.00
2018-05-31T03:08:33.543Z,500.00
2018-05-31T03:09:33.551Z,536.00
2018-05-31T03:10:33.489Z,572.00
2018-05-31T03:11:33.487Z,616.00
2018-05-31T03:12:33.449Z,660.00
2018-05-31T03:13:33.392Z,708.00
2018-05-31T03:14:33.348Z,760.00
2018-05-31T03:15:33.321Z,824.00
2018-05-31T03:16:33.278Z,888.00
2018-05-31T03:17:33.260Z,948.00
2018-05-31T03:18:33.232Z,1012.00
2018-05-31T03:19:33.180Z,1076.00
2018-05-31T03:20:33.204Z,1140.00
2018-05-31T03:21:33.120Z,1196.00
2018-05-31T03:22:33.114Z,1268.00
2018-05-31T03:23:33.079Z,1352.00
2018-05-31T03:24:33.012Z,1440.00
2018-05-31T03:25:32.986Z,1536.00
2018-05-31T03:26:32.980Z,1640.00
2018-05-31T03:27:32.914Z,1740.00
2018-05-31T03:28:32.879Z,1840.00
2018-05-31T03:29:32.853Z,1928.00
2018-05-31T03:30:32.832Z,2008.00
2018-05-31T03:31:32.791Z,2084.00
2018-05-31T03:32:32.740Z,2172.00
2018-05-31T03:33:32.749Z,2260.00
2018-05-31T03:34:32.672Z,2360.00
2018-05-31T03:35:32.646Z,2456.00
2018-05-31T03:36:32.607Z,2548.00
2018-05-31T03:37:32.561Z,2636.00
2018-05-31T03:38:32.544Z,2728.00
2018-05-31T03:39:32.528Z,2808.00
2018-05-31T03:40:32.477Z,2880.00
2018-05-31T03:41:32.440Z,2956.00
2018-05-31T03:42:32.415Z,3036.00
2018-05-31T03:43:32.370Z,3120.00
2018-05-31T03:44:32.344Z,3188.00
2018-05-31T03:45:32.329Z,3256.00
2018-05-31T03:46:32.270Z,3304.00
2018-05-31T03:47:32.279Z,3336.00
2018-05-31T03:48:32.347Z,3360.00
2018-05-31T03:49:32.209Z,3392.00
2018-05-31T03:50:32.253Z,3424.00
2018-05-31T03:51:32.122Z,3480.00
2018-05-31T03:52:32.111Z,3512.00
2018-05-31T03:53:32.059Z,3508.00
2018-05-31T03:54:32.011Z,3464.00
2018-05-31T03:55:32.013Z,3412.00
2018-05-31T03:56:31.927Z,3348.00
2018-05-31T03:57:31.886Z,3280.00
2018-05-31T03:58:31.860Z,3228.00
2018-05-31T03:59:31.855Z,3176.00
2018-05-31T04:00:31.863Z,3132.00
2018-05-31T04:01:31.786Z,3148.00
2018-05-31T04:02:31.771Z,3228.00
2018-05-31T04:03:31.711Z,3364.00
2018-05-31T04:04:31.735Z,3536.00
2018-05-31T04:05:31.701Z,3728.00
2018-05-31T04:06:31.592Z,3916.00
2018-05-31T04:07:31.542Z,4100.00
2018-05-31T04:08:31.541Z,4252.00
2018-05-31T04:09:31.550Z,4368.00
2018-05-31T04:10:31.467Z,4504.00
2018-05-31T04:11:31.426Z,4608.00
2018-05-31T04:12:31.412Z,4636.00
2018-05-31T04:13:31.377Z,4488.00
2018-05-31T04:14:31.316Z,4224.00
2018-05-31T04:15:31.347Z,4088.00
2018-05-31T04:16:31.260Z,4108.00
2018-05-31T04:17:31.221Z,4216.00
2018-05-31T04:18:31.190Z,4348.00
2018-05-31T04:19:31.165Z,4512.00
2018-05-31T04:20:31.107Z,4712.00
2018-05-31T04:21:31.080Z,4932.00
2018-05-31T04:22:31.050Z,5196.00
2018-05-31T04:23:31.027Z,5572.00
2018-05-31T04:24:30.974Z,6036.00
2018-05-31T04:25:30.978Z,6460.00
2018-05-31T04:26:30.931Z,6816.00
2018-05-31T04:27:30.900Z,7300.00
2018-05-31T04:28:30.867Z,8172.00
2018-05-31T04:29:30.833Z,9992.00
2018-05-31T04:30:30.795Z,12400.00
2018-05-31T04:31:30.740Z,14784.00
2018-05-31T04:32:30.739Z,17280.00
2018-05-31T04:33:30.686Z,19104.00
2018-05-31T04:34:30.627Z,18528.00
2018-05-31T04:35:30.602Z,17376.00
2018-05-31T04:36:30.577Z,16992.00
2018-05-31T04:37:30.567Z,16736.00
2018-05-31T04:38:30.489Z,16352.00
2018-05-31T04:39:30.498Z,17664.00
2018-05-31T04:40:30.455Z,18912.00
2018-05-31T04:41:30.412Z,20064.00
2018-05-31T04:42:30.416Z,21408.00
2018-05-31T04:43:30.363Z,21888.00
2018-05-31T04:44:30.309Z,21728.00
2018-05-31T04:45:31.127Z,21664.00
2018-05-31T04:46:30.260Z,21440.00
2018-05-31T04:47:30.242Z,21664.00
2018-05-31T04:48:30.220Z,21792.00
2018-05-31T04:49:30.164Z,22048.00
2018-05-31T04:50:30.138Z,23008.00
2018-05-31T04:51:30.109Z,24640.00
2018-05-31T04:52:30.058Z,25600.00
2018-05-31T04:53:30.099Z,26368.00
2018-05-31T04:54:30.007Z,27680.00
2018-05-31T04:55:29.972Z,27904.00
2018-05-31T04:56:29.927Z,26464.00
2018-05-31T04:57:29.908Z,25152.00
2018-05-31T04:58:29.884Z,25792.00
2018-05-31T04:59:29.859Z,27744.00
2018-05-31T05:00:29.801Z,28832.00
2018-05-31T05:01:29.874Z,28512.00
2018-05-31T05:02:29.768Z,27040.00
2018-05-31T05:03:29.747Z,26912.00
2018-05-31T05:04:29.681Z,27296.00
2018-05-31T05:05:29.684Z,28480.00
2018-05-31T05:06:29.672Z,30976.00
2018-05-31T05:07:29.631Z,33312.00
2018-05-31T05:08:29.584Z,35936.00
2018-05-31T05:09:29.575Z,36032.00
2018-05-31T05:10:29.554Z,35904.00
2018-05-31T05:11:29.545Z,34304.00
2018-05-31T05:12:29.508Z,34720.00
2018-05-31T05:13:29.442Z,35904.00
2018-05-31T05:14:29.408Z,37600.00
2018-05-31T05:15:29.401Z,38528.00
2018-05-31T05:16:29.384Z,39520.00
2018-05-31T05:17:29.340Z,40256.00
2018-05-31T05:18:29.326Z,40352.00
2018-05-31T05:19:29.285Z,40512.00
2018-05-31T05:20:29.246Z,41440.00
2018-05-31T05:21:29.231Z,43200.00
2018-05-31T05:22:30.145Z,43456.00
2018-05-31T05:23:29.169Z,44224.00
2018-05-31T05:24:29.157Z,44160.00
2018-05-31T05:25:29.107Z,42496.00
2018-05-31T05:26:29.163Z,41856.00
2018-05-31T05:27:29.080Z,40704.00
2018-05-31T05:28:29.056Z,37696.00
2018-05-31T05:29:29.043Z,36064.00
2018-05-31T05:30:29.057Z,33696.00
2018-05-31T05:31:29.001Z,31232.00
2018-05-31T05:32:29.010Z,32480.00
2018-05-31T05:33:28.920Z,32864.00
2018-05-31T05:34:28.906Z,30720.00
2018-05-31T05:35:28.872Z,29792.00
2018-05-31T05:36:28.845Z,31520.00
2018-05-31T05:37:28.825Z,34240.00
2018-05-31T05:38:28.790Z,35104.00
2018-05-31T05:39:28.768Z,34560.00
2018-05-31T05:40:28.745Z,32928.00
2018-05-31T05:41:28.774Z,34528.00
2018-05-31T05:42:28.697Z,39072.00
2018-05-31T05:43:28.704Z,40864.00
2018-05-31T05:44:28.658Z,38304.00
2018-05-31T05:45:28.639Z,36896.00
2018-05-31T05:46:28.593Z,37280.00
2018-05-31T05:47:28.614Z,39392.00
2018-05-31T05:48:28.580Z,35616.00
2018-05-31T05:49:28.545Z,32800.00
2018-05-31T05:50:28.509Z,32960.00
2018-05-31T05:51:28.510Z,33280.00
2018-05-31T05:52:28.467Z,34624.00
2018-05-31T05:53:28.449Z,33120.00
2018-05-31T05:54:28.420Z,32672.00
2018-05-31T05:55:28.372Z,33312.00
2018-05-31T05:56:28.367Z,32576.00
2018-05-31T05:57:28.331Z,29984.00
2018-05-31T05:58:28.304Z,29312.00
2018-05-31T05:59:28.276Z,29216.00
2018-05-31T06:00:28.290Z,29632.00
2018-05-31T06:01:28.250Z,31808.00
2018-05-31T06:02:28.251Z,35584.00
2018-05-31T06:03:28.194Z,39360.00
2018-05-31T06:04:28.179Z,38496.00
2018-05-31T06:05:28.176Z,38464.00
2018-05-31T06:06:28.122Z,38368.00
2018-05-31T06:07:28.084Z,36608.00
2018-05-31T06:08:28.046Z,34816.00
2018-05-31T06:09:28.045Z,30112.00
2018-05-31T06:10:28.029Z,29216.00
2018-05-31T06:11:27.977Z,28480.00
2018-05-31T06:12:28.664Z,26432.00
2018-05-31T06:13:27.963Z,25472.00
2018-05-31T06:14:27.909Z,25056.00
2018-05-31T06:15:27.889Z,25024.00
2018-05-31T06:16:27.878Z,25088.00
2018-05-31T06:17:27.879Z,24896.00
2018-05-31T06:18:27.816Z,24512.00
2018-05-31T06:19:27.791Z,24576.00
2018-05-31T06:20:27.791Z,23936.00
2018-05-31T06:21:27.815Z,23136.00
2018-05-31T06:22:27.773Z,22528.00
2018-05-31T06:23:27.748Z,22144.00
2018-05-31T06:24:27.679Z,21920.00
2018-05-31T06:25:27.652Z,21952.00
2018-05-31T06:26:27.705Z,21952.00
2018-05-31T06:27:27.588Z,22048.00
2018-05-31T06:28:27.554Z,22368.00
2018-05-31T06:29:27.531Z,22432.00
2018-05-31T06:30:27.563Z,22560.00
2018-05-31T06:31:27.498Z,22624.00
2018-05-31T06:32:27.475Z,22688.00
2018-05-31T06:33:27.482Z,22560.00
2018-05-31T06:34:27.412Z,22432.00
2018-05-31T06:35:27.370Z,22432.00
2018-05-31T06:36:27.447Z,22560.00
2018-05-31T06:37:27.430Z,22816.00
2018-05-31T06:38:27.323Z,23296.00
2018-05-31T06:39:27.297Z,23648.00
2018-05-31T06:40:27.296Z,23776.00
2018-05-31T06:41:27.227Z,23904.00
2018-05-31T06:42:27.215Z,24224.00
2018-05-31T06:43:27.216Z,24544.00
2018-05-31T06:44:27.244Z,24640.00
2018-05-31T06:45:27.174Z,24672.00
2018-05-31T06:46:27.133Z,24352.00
2018-05-31T06:47:27.097Z,23968.00
2018-05-31T06:48:27.129Z,24608.00
2018-05-31T06:49:27.047Z,25248.00
2018-05-31T06:50:27.032Z,26624.00
2018-05-31T06:51:27.014Z,29408.00
2018-05-31T06:52:26.982Z,30944.00
2018-05-31T06:53:26.945Z,33568.00
2018-05-31T06:54:26.905Z,37280.00
2018-05-31T06:55:26.878Z,34336.00
2018-05-31T06:56:26.880Z,37600.00
2018-05-31T06:57:26.875Z,33792.00
2018-05-31T06:58:26.859Z,33504.00
2018-05-31T06:59:26.784Z,35680.00
2018-05-31T07:00:26.839Z,42752.00
2018-05-31T07:01:26.795Z,47136.00
2018-05-31T07:02:26.701Z,47488.00
2018-05-31T07:03:26.759Z,52384.00
2018-05-31T07:04:26.678Z,52256.00
2018-05-31T07:05:26.653Z,61824.00
2018-05-31T07:06:26.622Z,64736.00
2018-05-31T07:07:26.605Z,66752.00
2018-05-31T07:08:26.589Z,71936.00
2018-05-31T07:09:26.561Z,74496.00
2018-05-31T07:10:26.503Z,73120.00
2018-05-31T07:11:26.519Z,76160.00
2018-05-31T07:12:26.466Z,70144.00
2018-05-31T07:13:26.474Z,68000.00
2018-05-31T07:14:26.413Z,71488.00
2018-05-31T07:15:26.436Z,75104.00
2018-05-31T07:16:26.391Z,75136.00
2018-05-31T07:17:26.360Z,76032.00
2018-05-31T07:18:26.317Z,79488.00
2018-05-31T07:19:26.340Z,79936.00
2018-05-31T07:20:26.335Z,77760.00
2018-05-31T07:21:26.292Z,87008.00
2018-05-31T07:22:26.263Z,88480.00
2018-05-31T07:23:26.226Z,82176.00
2018-05-31T07:24:26.210Z,83232.00
2018-05-31T07:25:26.171Z,85824.00
2018-05-31T07:26:26.181Z,85632.00
2018-05-31T07:27:26.154Z,84384.00
2018-05-31T07:28:26.143Z,84416.00
2018-05-31T07:29:26.123Z,85984.00
2018-05-31T07:30:26.082Z,85952.00
2018-05-31T07:31:26.111Z,89536.00
2018-05-31T07:32:26.034Z,91808.00
2018-05-31T07:33:26.057Z,93696.00
2018-05-31T07:34:26.028Z,99616.00
2018-05-31T07:35:25.984Z,100736.00
2018-05-31T07:36:25.962Z,93536.00
2018-05-31T07:37:25.955Z,87872.00
2018-05-31T07:38:25.960Z,80800.00
2018-05-31T07:39:25.899Z,77984.00
2018-05-31T07:40:25.877Z,82880.00
2018-05-31T07:41:25.865Z,85728.00
2018-05-31T07:42:25.882Z,86656.00
2018-05-31T07:43:25.836Z,86976.00
2018-05-31T07:44:25.825Z,91168.00
2018-05-31T07:45:25.799Z,96992.00
2018-05-31T07:46:25.774Z,97472.00
2018-05-31T07:47:25.763Z,94688.00
2018-05-31T07:48:25.745Z,91136.00
2018-05-31T07:49:25.727Z,86816.00
2018-05-31T07:50:25.713Z,87936.00
2018-05-31T07:51:25.683Z,94432.00
2018-05-31T07:52:25.660Z,96032.00
2018-05-31T07:53:25.650Z,93952.00
2018-05-31T07:54:25.655Z,90912.00
2018-05-31T07:55:25.637Z,87392.00
2018-05-31T07:56:25.604Z,85056.00
2018-05-31T07:57:25.573Z,89248.00
2018-05-31T07:58:25.569Z,92672.00
2018-05-31T07:59:25.562Z,94432.00
2018-05-31T08:00:25.549Z,93120.00
2018-05-31T08:01:25.530Z,90720.00
2018-05-31T08:02:25.502Z,90944.00
2018-05-31T08:03:25.499Z,94528.00
2018-05-31T08:04:25.504Z,97280.00
2018-05-31T08:05:25.452Z,93184.00
2018-05-31T08:06:25.444Z,86304.00
2018-05-31T08:07:25.448Z,84192.00
2018-05-31T08:08:25.445Z,88800.00
2018-05-31T08:09:25.399Z,90432.00
2018-05-31T08:10:25.418Z,90624.00
2018-05-31T08:11:25.499Z,98496.00
2018-05-31T08:12:25.362Z,100960.00
2018-05-31T08:13:25.370Z,100128.00
2018-05-31T08:14:25.316Z,98656.00
2018-05-31T08:15:25.311Z,94560.00
2018-05-31T08:16:25.300Z,93216.00
2018-05-31T08:17:25.293Z,98720.00
2018-05-31T08:18:25.322Z,99552.00
2018-05-31T08:19:25.259Z,100128.00
2018-05-31T08:20:25.241Z,99968.00
2018-05-31T08:21:25.215Z,94048.00
2018-05-31T08:22:25.212Z,91936.00
2018-05-31T08:23:25.178Z,90176.00
2018-05-31T08:24:25.173Z,86752.00
2018-05-31T08:25:25.156Z,87008.00
2018-05-31T08:26:25.177Z,94496.00
2018-05-31T08:27:25.141Z,99392.00
2018-05-31T08:28:25.169Z,105600.00
2018-05-31T08:29:25.109Z,104448.00
2018-05-31T08:30:25.093Z,106112.00
2018-05-31T08:31:25.152Z,106048.00
2018-05-31T08:32:25.115Z,104576.00
2018-05-31T08:33:25.058Z,104960.00
2018-05-31T08:34:25.037Z,103552.00
2018-05-31T08:35:25.028Z,33216.00
2018-05-31T08:36:25.025Z,85056.00
2018-05-31T08:37:25.011Z,91520.00
2018-05-31T08:38:24.971Z,94688.00
2018-05-31T08:39:24.990Z,91616.00
2018-05-31T08:40:24.935Z,94368.00
2018-05-31T08:41:24.930Z,97888.00
2018-05-31T08:42:24.921Z,95040.00
2018-05-31T08:43:24.953Z,100128.00
2018-05-31T08:44:24.895Z,94848.00
2018-05-31T08:45:24.929Z,98080.00
2018-05-31T08:46:24.860Z,97856.00
2018-05-31T08:47:24.844Z,33120.00
2018-05-31T08:48:24.831Z,32384.00
2018-05-31T08:49:24.821Z,64288.00
2018-05-31T08:50:24.784Z,83072.00
2018-05-31T08:51:24.839Z,39072.00
2018-05-31T08:52:24.758Z,36960.00
2018-05-31T08:53:24.769Z,53760.00
2018-05-31T08:54:24.736Z,97664.00
2018-05-31T08:55:24.732Z,105152.00
2018-05-31T08:56:24.717Z,111040.00
2018-05-31T08:57:24.845Z,111392.00
2018-05-31T08:58:24.665Z,102144.00
2018-05-31T08:59:24.654Z,98400.00
2018-05-31T09:00:24.722Z,98304.00
2018-05-31T09:01:24.629Z,96800.00
2018-05-31T09:02:24.643Z,92320.00
2018-05-31T09:03:24.609Z,35840.00
2018-05-31T09:04:24.660Z,34432.00
2018-05-31T09:05:24.566Z,49792.00
2018-05-31T09:06:24.558Z,98624.00
2018-05-31T09:07:24.587Z,98048.00
2018-05-31T09:08:24.515Z,96640.00
2018-05-31T09:09:24.506Z,101920.00
2018-05-31T09:10:24.484Z,103232.00
2018-05-31T09:11:24.448Z,102976.00
2018-05-31T09:12:24.456Z,60096.00
2018-05-31T09:13:24.426Z,41440.00
2018-05-31T09:14:24.407Z,98912.00
2018-05-31T09:15:24.395Z,106944.00
2018-05-31T09:16:24.385Z,110464.00
2018-05-31T09:17:24.371Z,113440.00
2018-05-31T09:18:24.382Z,114176.00
2018-05-31T09:19:24.339Z,106592.00
2018-05-31T09:20:24.317Z,106304.00
2018-05-31T09:21:24.292Z,107840.00
2018-05-31T09:22:24.311Z,105664.00
2018-05-31T09:23:24.271Z,102560.00
2018-05-31T09:24:24.254Z,93152.00
2018-05-31T09:25:24.241Z,42688.00
2018-05-31T09:26:24.253Z,34848.00
2018-05-31T09:27:24.200Z,36672.00
2018-05-31T09:28:24.186Z,110560.00
2018-05-31T09:29:24.188Z,107680.00
2018-05-31T09:30:24.146Z,96960.00
2018-05-31T09:31:24.136Z,83264.00
2018-05-31T09:32:24.113Z,77440.00
2018-05-31T09:33:24.113Z,101248.00
2018-05-31T09:34:24.115Z,95072.00
2018-05-31T09:35:24.086Z,100928.00
2018-05-31T09:36:24.083Z,106880.00
2018-05-31T09:37:24.045Z,111712.00
2018-05-31T09:38:24.029Z,112512.00
2018-05-31T09:39:24.019Z,111168.00
2018-05-31T09:40:23.977Z,108992.00
2018-05-31T09:41:23.990Z,103040.00
2018-05-31T09:42:23.949Z,95872.00
2018-05-31T09:43:23.927Z,90624.00
2018-05-31T09:44:23.931Z,99872.00
2018-05-31T09:45:23.907Z,105920.00
2018-05-31T09:46:23.892Z,104032.00
2018-05-31T09:47:23.868Z,103680.00
2018-05-31T09:48:23.868Z,103776.00
2018-05-31T09:49:23.862Z,106720.00
2018-05-31T09:50:23.836Z,108096.00
2018-05-31T09:51:23.801Z,108608.00
2018-05-31T09:52:23.788Z,112096.00
2018-05-31T09:53:23.782Z,106880.00
2018-05-31T09:54:23.764Z,104256.00
2018-05-31T09:55:23.731Z,105440.00
2018-05-31T09:56:23.720Z,104416.00
2018-05-31T09:57:23.708Z,106592.00
2018-05-31T09:58:23.694Z,107840.00
2018-05-31T09:59:23.684Z,110816.00
2018-05-31T10:00:23.663Z,88448.00
2018-05-31T10:01:23.651Z,98752.00
2018-05-31T10:02:23.640Z,97280.00
2018-05-31T10:03:23.622Z,48480.00
2018-05-31T10:04:23.606Z,106592.00
2018-05-31T10:05:23.597Z,111072.00
2018-05-31T10:06:23.591Z,79328.00
2018-05-31T10:07:23.572Z,72160.00
2018-05-31T10:08:23.555Z,105440.00
2018-05-31T10:09:23.526Z,113344.00
2018-05-31T10:10:23.513Z,119328.00
2018-05-31T10:11:23.509Z,117600.00
2018-05-31T10:12:23.495Z,109536.00
2018-05-31T10:13:23.480Z,90176.00
2018-05-31T10:14:23.432Z,65696.00
2018-05-31T10:15:23.438Z,85824.00
2018-05-31T10:16:23.448Z,116000.00
2018-05-31T10:17:23.400Z,101632.00
2018-05-31T10:18:23.402Z,67456.00
2018-05-31T10:19:23.386Z,63968.00
2018-05-31T10:20:23.357Z,122464.00
2018-05-31T10:21:23.338Z,110688.00
2018-05-31T10:22:23.314Z,101856.00
2018-05-31T10:23:23.309Z,108832.00
2018-05-31T10:24:23.301Z,115872.00
2018-05-31T10:25:23.262Z,110944.00
2018-05-31T10:26:23.264Z,113056.00
2018-05-31T10:27:23.234Z,120128.00
2018-05-31T10:28:23.214Z,115968.00
2018-05-31T10:29:23.204Z,116608.00
2018-05-31T10:30:23.179Z,116352.00
2018-05-31T10:31:23.201Z,115584.00
2018-05-31T10:32:23.148Z,39648.00
2018-05-31T10:33:23.138Z,38176.00
2018-05-31T10:34:23.127Z,37056.00
2018-05-31T10:35:23.124Z,35456.00
2018-05-31T10:36:23.112Z,35744.00
2018-05-31T10:37:23.074Z,37280.00
2018-05-31T10:38:23.067Z,94912.00
2018-05-31T10:39:23.074Z,125568.00
2018-05-31T10:40:23.030Z,106688.00
2018-05-31T10:41:23.022Z,105056.00
2018-05-31T10:42:22.993Z,111744.00
2018-05-31T10:43:22.976Z,92864.00
2018-05-31T10:44:22.961Z,107808.00
2018-05-31T10:45:22.951Z,116288.00
2018-05-31T10:46:22.949Z,119712.00
2018-05-31T10:47:22.932Z,108416.00
2018-05-31T10:48:22.920Z,47904.00
2018-05-31T10:49:22.888Z,49888.00
2018-05-31T10:50:22.847Z,100960.00
2018-05-31T10:51:22.837Z,104032.00
2018-05-31T10:52:22.837Z,111968.00
2018-05-31T10:53:22.810Z,109920.00
2018-05-31T10:54:22.787Z,115904.00
2018-05-31T10:55:22.768Z,107264.00
2018-05-31T10:56:22.778Z,97440.00
2018-05-31T10:57:22.736Z,101184.00
2018-05-31T10:58:22.750Z,102176.00
2018-05-31T10:59:22.736Z,102880.00
2018-05-31T11:00:22.704Z,91936.00
2018-05-31T11:01:22.697Z,113920.00
2018-05-31T11:02:22.666Z,115136.00
2018-05-31T11:03:22.668Z,108416.00
2018-05-31T11:04:22.620Z,107552.00
2018-05-31T11:05:22.619Z,113568.00
2018-05-31T11:06:22.605Z,121312.00
2018-05-31T11:07:22.564Z,112352.00
2018-05-31T11:08:22.578Z,100480.00
2018-05-31T11:09:22.560Z,104032.00
2018-05-31T11:10:22.539Z,101760.00
2018-05-31T11:11:22.518Z,99840.00
2018-05-31T11:12:22.502Z,101376.00
2018-05-31T11:13:22.491Z,96032.00
2018-05-31T11:14:22.463Z,93088.00
2018-05-31T11:15:22.457Z,56672.00
2018-05-31T11:16:22.458Z,39520.00
2018-05-31T11:17:22.450Z,77952.00
2018-05-31T11:18:22.426Z,80288.00
2018-05-31T11:19:22.383Z,91744.00
2018-05-31T11:20:22.359Z,94208.00
2018-05-31T11:21:22.348Z,103488.00
2018-05-31T11:22:22.372Z,102496.00
2018-05-31T11:23:22.311Z,116576.00
2018-05-31T11:24:22.319Z,117152.00
2018-05-31T11:25:22.286Z,113760.00
2018-05-31T11:26:22.277Z,116064.00
2018-05-31T11:27:22.279Z,121664.00
2018-05-31T11:28:22.238Z,123104.00
2018-05-31T11:29:22.223Z,118752.00
2018-05-31T11:30:22.204Z,122592.00
2018-05-31T11:31:22.209Z,122752.00
2018-05-31T11:32:22.169Z,128448.00
2018-05-31T11:33:22.168Z,147488.00
2018-05-31T11:34:22.155Z,146464.00
2018-05-31T11:35:22.139Z,139360.00
2018-05-31T11:36:22.127Z,145472.00
2018-05-31T11:37:22.099Z,153280.00
2018-05-31T11:38:22.144Z,132096.00
2018-05-31T11:39:22.098Z,113600.00
2018-05-31T11:40:22.052Z,116384.00
2018-05-31T11:41:22.022Z,80160.00
2018-05-31T11:42:22.065Z,38720.00
2018-05-31T11:43:21.989Z,37120.00
2018-05-31T11:44:21.979Z,36384.00
2018-05-31T11:45:21.973Z,36288.00
2018-05-31T11:46:22.038Z,35840.00
2018-05-31T11:47:21.934Z,34624.00
2018-05-31T11:48:21.921Z,33184.00
2018-05-31T11:49:21.921Z,33600.00
2018-05-31T11:50:21.916Z,39168.00
2018-05-31T11:51:21.879Z,54144.00
2018-05-31T11:52:21.886Z,40704.00
2018-05-31T11:53:21.867Z,64256.00
2018-05-31T11:54:21.825Z,63616.00
2018-05-31T11:55:21.789Z,64032.00
2018-05-31T11:56:21.846Z,64384.00
2018-05-31T11:57:21.772Z,64288.00
2018-05-31T11:58:21.750Z,46784.00
2018-05-31T11:59:21.735Z,42752.00
2018-05-31T12:00:21.750Z,40960.00
2018-05-31T12:01:21.717Z,41184.00
2018-05-31T12:02:21.739Z,41184.00
2018-05-31T12:03:21.677Z,39968.00
2018-05-31T12:04:21.638Z,37408.00